Time;durP1;ratioP1;P1;durP2;ratioP2;P2;SDS_P1;SDS_P2;PMS_P1;PMS_P2;Temp;Humidity;BMP_temperature;BMP_pressure;BME280_temperature;BME280_humidity;BME280_pressure;Samples;Min_cycle;Max_cycle;Signal;HPM_P1;HPM_P2
2021/05/27 00:01:20;;;;;;;0.80;0.80;;;12.00;99.90;;;;;;5034345;28;20548;-81
2021/05/27 00:03:48;;;;;;;0.80;0.80;;;11.80;1.00;;;;;;5026335;28;20473;-78
2021/05/27 00:06:16;;;;;;;0.67;0.67;;;11.80;1.00;;;;;;5033999;28;20451;-79
2021/05/27 00:08:44;;;;;;;0.63;0.63;;;11.80;1.00;;;;;;5031350;28;20888;-79
2021/05/27 00:11:11;;;;;;;1.97;0.80;;;11.80;1.00;;;;;;5033253;28;20466;-79
2021/05/27 00:13:39;;;;;;;0.80;0.80;;;11.80;1.00;;;;;;5032983;28;20475;-80
2021/05/27 00:16:07;;;;;;;0.80;0.80;;;11.80;1.00;;;;;;5066613;28;20462;-81
2021/05/27 00:18:35;;;;;;;0.80;0.80;;;12.10;1.00;;;;;;5025868;28;20455;-79
2021/05/27 00:21:03;;;;;;;2.07;0.90;;;11.80;1.00;;;;;;5035021;28;20454;-79
2021/05/27 00:23:30;;;;;;;0.80;0.80;;;11.80;1.00;;;;;;5032913;28;21031;-79
2021/05/27 00:25:58;;;;;;;0.87;0.87;;;11.80;1.00;;;;;;5034173;28;20461;-78
2021/05/27 00:28:25;;;;;;;0.80;0.80;;;11.90;1.00;;;;;;5033362;28;20454;-78
2021/05/27 00:30:53;;;;;;;0.60;0.60;;;11.90;1.00;;;;;;5032989;28;20472;-81
2021/05/27 00:33:22;;;;;;;1.10;0.87;;;11.80;99.90;;;;;;5033947;28;20476;-81
2021/05/27 00:35:49;;;;;;;1.20;1.10;;;11.80;99.90;;;;;;5034566;28;20469;-81
2021/05/27 00:38:17;;;;;;;0.80;0.80;;;11.90;99.90;;;;;;5029105;28;20456;-79
2021/05/27 00:40:45;;;;;;;0.90;0.70;;;11.90;99.90;;;;;;5014888;28;20451;-79
2021/05/27 00:43:12;;;;;;;1.70;0.90;;;12.00;99.90;;;;;;5033764;28;20476;-79
2021/05/27 00:45:40;;;;;;;0.70;0.70;;;12.00;99.90;;;;;;5033941;28;20478;-79
2021/05/27 00:48:08;;;;;;;1.27;1.00;;;11.90;99.90;;;;;;5032062;28;20458;-79
2021/05/27 00:50:37;;;;;;;0.70;0.70;;;11.90;99.90;;;;;;5034221;28;21008;-79
2021/05/27 00:53:04;;;;;;;0.90;0.80;;;11.90;99.90;;;;;;5032213;28;21030;-80
2021/05/27 00:55:32;;;;;;;2.60;0.77;;;11.70;99.90;;;;;;5033974;28;20456;-79
2021/05/27 00:58:02;;;;;;;1.20;0.90;;;11.80;1.00;;;;;;5031902;28;20472;-77
2021/05/27 01:00:29;;;;;;;0.80;0.80;;;11.80;1.00;;;;;;5032645;28;20457;-78
2021/05/27 01:02:57;;;;;;;0.90;0.90;;;11.80;1.00;;;;;;5031251;28;20484;-79
2021/05/27 01:05:24;;;;;;;1.87;0.73;;;11.80;1.00;;;;;;5032135;28;20450;-81
2021/05/27 01:07:53;;;;;;;0.90;0.90;;;11.80;99.90;;;;;;5031901;28;20855;-78
2021/05/27 01:10:21;;;;;;;2.30;0.90;;;11.80;1.00;;;;;;5031417;28;20532;-80
2021/05/27 01:12:48;;;;;;;1.73;1.00;;;11.80;99.90;;;;;;5031136;28;20453;-78
2021/05/27 01:15:28;;;;;;;0.97;0.87;;;11.90;99.90;;;;;;5029258;28;20462;-79
2021/05/27 01:17:56;;;;;;;2.20;0.73;;;11.80;99.90;;;;;;5026592;28;20528;-79
2021/05/27 01:20:24;;;;;;;2.10;0.90;;;11.80;99.90;;;;;;5033472;28;20460;-80
2021/05/27 01:22:53;;;;;;;0.73;0.73;;;11.80;1.00;;;;;;5031197;28;20450;-81
2021/05/27 01:25:21;;;;;;;0.80;0.80;;;11.80;99.90;;;;;;5031147;28;20462;-79
2021/05/27 01:27:48;;;;;;;1.87;0.80;;;11.80;99.90;;;;;;5028144;28;20503;-79
2021/05/27 01:30:17;;;;;;;1.00;0.80;;;11.80;99.90;;;;;;5032361;28;20881;-78
2021/05/27 01:32:45;;;;;;;0.73;0.73;;;11.70;99.90;;;;;;5031051;28;20516;-78
2021/05/27 01:35:15;;;;;;;0.70;0.70;;;11.70;99.90;;;;;;5032028;28;20467;-78
2021/05/27 01:37:44;;;;;;;2.27;0.70;;;11.70;99.90;;;;;;5032747;28;20480;-79
2021/05/27 01:40:14;;;;;;;1.10;0.90;;;11.70;99.90;;;;;;5031023;28;20453;-80
2021/05/27 01:42:41;;;;;;;2.50;1.10;;;11.70;99.90;;;;;;5024606;28;20450;-78
2021/05/27 01:45:10;;;;;;;0.60;0.60;;;11.80;99.90;;;;;;5023591;28;20463;-78
2021/05/27 01:47:38;;;;;;;0.90;0.80;;;11.60;99.90;;;;;;5033483;28;20439;-79
2021/05/27 01:50:09;;;;;;;0.60;0.60;;;11.60;1.00;;;;;;5031683;28;20480;-78
2021/05/27 01:52:36;;;;;;;1.00;0.83;;;11.60;1.00;;;;;;5031686;28;20463;-81
2021/05/27 01:55:05;;;;;;;0.90;0.83;;;11.70;99.90;;;;;;5032319;28;21051;-78
2021/05/27 01:57:34;;;;;;;0.70;0.70;;;11.70;1.00;;;;;;5032709;28;20513;-79
2021/05/27 02:00:04;;;;;;;1.87;1.77;;;11.80;1.00;;;;;;5026349;28;20494;-80
2021/05/27 02:02:31;;;;;;;0.70;0.70;;;11.80;99.90;;;;;;5028520;28;20451;-79
2021/05/27 02:04:59;;;;;;;0.80;0.80;;;11.80;99.90;;;;;;5031718;28;20484;-79
2021/05/27 02:07:28;;;;;;;0.70;0.70;;;11.90;99.90;;;;;;5018307;28;21039;-78
2021/05/27 02:09:55;;;;;;;1.33;0.80;;;11.90;99.90;;;;;;5019319;28;20951;-78
2021/05/27 02:12:23;;;;;;;0.70;0.70;;;11.80;99.90;;;;;;5032835;28;21048;-82
2021/05/27 02:14:52;;;;;;;0.80;0.80;;;11.80;99.90;;;;;;5032035;28;21043;-78
2021/05/27 02:17:19;;;;;;;1.00;0.67;;;11.80;99.90;;;;;;5032854;28;20457;-79
2021/05/27 02:19:47;;;;;;;0.70;0.70;;;11.80;99.90;;;;;;5029216;28;20453;-78
2021/05/27 02:22:14;;;;;;;0.97;0.73;;;11.70;99.90;;;;;;5030580;28;20462;-79
2021/05/27 02:24:42;;;;;;;1.10;0.87;;;11.70;1.00;;;;;;5030651;28;20510;-80
2021/05/27 02:27:10;;;;;;;1.33;0.83;;;11.70;1.00;;;;;;5031974;28;20454;-81
2021/05/27 02:29:37;;;;;;;1.00;0.70;;;11.70;1.00;;;;;;5030448;28;20944;-80
2021/05/27 02:32:07;;;;;;;0.87;0.87;;;11.70;1.00;;;;;;5029114;28;20489;-80
2021/05/27 02:34:34;;;;;;;0.70;0.70;;;11.70;1.00;;;;;;5027617;28;20473;-79
2021/05/27 02:37:03;;;;;;;1.23;1.13;;;11.70;1.00;;;;;;5030697;28;20475;-78
2021/05/27 02:39:30;;;;;;;1.10;0.73;;;11.70;99.90;;;;;;5029958;28;20826;-80
2021/05/27 02:41:58;;;;;;;0.70;0.70;;;11.60;1.00;;;;;;5028204;28;20942;-77
2021/05/27 02:44:26;;;;;;;0.80;0.80;;;11.80;1.00;;;;;;5016709;28;20490;-79
2021/05/27 02:46:54;;;;;;;0.80;0.70;;;11.80;99.90;;;;;;5030661;28;21024;-79
2021/05/27 02:49:22;;;;;;;0.80;0.80;;;11.90;99.90;;;;;;5028534;28;20455;-79
2021/05/27 02:51:50;;;;;;;0.63;0.63;;;11.90;99.90;;;;;;5027047;28;21005;-79
2021/05/27 02:54:17;;;;;;;0.80;0.80;;;11.70;1.00;;;;;;5027930;28;20900;-80
2021/05/27 02:56:45;;;;;;;1.00;0.90;;;11.70;1.00;;;;;;5029323;28;20970;-82
2021/05/27 02:59:13;;;;;;;0.80;0.80;;;11.70;1.00;;;;;;5029895;28;20454;-79
2021/05/27 03:01:41;;;;;;;1.10;1.00;;;11.60;1.00;;;;;;5030317;28;20451;-79
2021/05/27 03:04:08;;;;;;;1.10;0.83;;;11.70;1.00;;;;;;5030626;28;20480;-79
2021/05/27 03:06:37;;;;;;;1.00;1.00;;;11.70;1.00;;;;;;5031181;28;20484;-79
2021/05/27 03:09:05;;;;;;;0.90;0.90;;;11.70;1.00;;;;;;5029312;28;20469;-79
2021/05/27 03:11:32;;;;;;;0.90;0.90;;;11.80;1.00;;;;;;5031511;28;20542;-79
2021/05/27 03:14:00;;;;;;;0.87;0.83;;;11.80;1.00;;;;;;5028330;28;20488;-78
2021/05/27 03:16:28;;;;;;;1.57;0.90;;;11.90;99.90;;;;;;5026044;28;20466;-80
2021/05/27 03:18:55;;;;;;;1.07;0.97;;;11.90;99.90;;;;;;5028573;28;20455;-78
2021/05/27 03:21:23;;;;;;;1.90;0.80;;;11.90;99.90;;;;;;5031526;28;20537;-78
2021/05/27 03:23:52;;;;;;;1.90;0.70;;;11.90;99.90;;;;;;5015190;28;20487;-79
2021/05/27 03:26:19;;;;;;;1.00;0.90;;;11.90;99.90;;;;;;5018681;28;20463;-83
2021/05/27 03:28:47;;;;;;;0.97;0.97;;;11.90;99.90;;;;;;5022234;28;20449;-78
2021/05/27 03:31:15;;;;;;;0.83;0.83;;;11.80;99.90;;;;;;5023358;28;20489;-78
2021/05/27 03:33:43;;;;;;;0.90;0.90;;;11.80;1.00;;;;;;5028776;28;20892;-79
2021/05/27 03:36:10;;;;;;;1.20;1.10;;;11.70;1.00;;;;;;5028926;28;20500;-79
2021/05/27 03:38:38;;;;;;;1.00;0.90;;;11.70;1.00;;;;;;5029361;28;20521;-78
2021/05/27 03:41:06;;;;;;;1.53;1.00;;;11.70;1.00;;;;;;5030841;28;20973;-78
2021/05/27 03:43:34;;;;;;;1.20;1.10;;;11.70;1.00;;;;;;5030442;28;20530;-79
2021/05/27 03:46:02;;;;;;;1.07;0.97;;;11.70;1.00;;;;;;5030049;28;21190;-80
2021/05/27 03:48:30;;;;;;;1.07;0.97;;;11.70;1.00;;;;;;5061164;28;20454;-79
2021/05/27 03:50:58;;;;;;;1.03;1.00;;;11.70;1.00;;;;;;5030480;28;20545;-77
2021/05/27 03:53:26;;;;;;;1.27;1.17;;;11.60;1.00;;;;;;5028944;28;20472;-77
2021/05/27 03:55:54;;;;;;;2.40;1.00;;;11.60;1.00;;;;;;5029790;28;20473;-79
2021/05/27 04:01:08;;;;;;;0.90;0.90;;;11.80;1.00;;;;;;5040375;28;20451;-78
2021/05/27 04:09:03;;;;;;;1.73;1.30;;;11.60;1.00;;;;;;5030316;28;20468;-78
2021/05/27 04:11:31;;;;;;;1.00;0.90;;;11.60;1.00;;;;;;5030712;28;20481;-78
2021/05/27 04:14:00;;;;;;;1.67;1.10;;;11.60;1.00;;;;;;5028970;28;20477;-78
2021/05/27 04:16:27;;;;;;;1.87;1.63;;;11.50;99.90;;;;;;5027007;28;20515;-79
2021/05/27 04:18:55;;;;;;;2.20;1.20;;;11.40;99.90;;;;;;5029095;28;20497;-79
2021/05/27 04:21:23;;;;;;;2.50;1.33;;;11.40;1.00;;;;;;5029060;28;20501;-80
2021/05/27 04:23:50;;;;;;;1.13;1.03;;;11.50;99.90;;;;;;5021110;28;20472;-82
2021/05/27 04:26:18;;;;;;;1.03;1.03;;;11.40;99.90;;;;;;5020965;28;20458;-79
2021/05/27 04:28:48;;;;;;;1.27;1.03;;;11.50;99.90;;;;;;5033240;28;20459;-79
2021/05/27 04:31:18;;;;;;;1.30;1.20;;;11.40;99.90;;;;;;5027082;28;20470;-78
2021/05/27 04:33:54;;;;;;;2.50;1.13;;;11.50;99.90;;;;;;5034135;28;21027;-79
2021/05/27 04:36:22;;;;;;;2.10;1.20;;;11.50;99.90;;;;;;5024679;28;20471;-79
2021/05/27 04:38:50;;;;;;;1.23;1.00;;;11.40;99.90;;;;;;5024205;28;21245;-79
2021/05/27 04:41:19;;;;;;;1.10;1.00;;;11.50;99.90;;;;;;5033150;28;20793;-78
2021/05/27 04:43:52;;;;;;;1.43;1.10;;;11.40;99.90;;;;;;5034063;28;20472;-78
2021/05/27 04:46:21;;;;;;;1.20;1.10;;;11.40;99.90;;;;;;5031258;28;20470;-80
2021/05/27 04:48:49;;;;;;;2.60;1.10;;;11.40;99.90;;;;;;5031759;28;20969;-80
2021/05/27 04:51:17;;;;;;;0.83;0.83;;;11.60;99.90;;;;;;5033356;28;21003;-78
2021/05/27 04:53:45;;;;;;;1.23;1.10;;;11.60;2.90;;;;;;5033016;28;20475;-78
2021/05/27 04:56:13;;;;;;;1.27;1.17;;;11.70;1.00;;;;;;5033663;28;21367;-78
2021/05/27 04:58:41;;;;;;;1.03;0.93;;;11.80;1.00;;;;;;5033087;28;20448;-78
2021/05/27 05:01:09;;;;;;;1.20;1.10;;;11.80;1.00;;;;;;5032235;28;20445;-78
2021/05/27 05:03:37;;;;;;;0.90;0.90;;;11.90;1.00;;;;;;5032801;28;20480;-79
2021/05/27 05:06:05;;;;;;;1.30;1.20;;;11.90;1.00;;;;;;5033420;28;20881;-77
2021/05/27 05:08:32;;;;;;;1.07;1.07;;;11.90;1.00;;;;;;5032524;28;20505;-78
2021/05/27 05:11:00;;;;;;;2.10;1.03;;;11.80;1.00;;;;;;5033045;28;20478;-77
2021/05/27 05:13:28;;;;;;;1.63;1.10;;;11.70;63.90;;;;;;5031662;28;20471;-77
2021/05/27 05:15:55;;;;;;;1.30;1.20;;;11.60;99.90;;;;;;5033448;28;20499;-79
2021/05/27 05:18:23;;;;;;;2.43;1.20;;;11.70;82.90;;;;;;5031650;28;20461;-79
2021/05/27 05:20:52;;;;;;;2.30;1.30;;;11.90;1.00;;;;;;5041082;28;20466;-81
2021/05/27 05:23:20;;;;;;;1.30;0.97;;;12.00;1.00;;;;;;5018313;28;20523;-79
2021/05/27 05:25:48;;;;;;;1.37;1.27;;;11.90;1.00;;;;;;5022626;28;20471;-78
2021/05/27 05:28:16;;;;;;;1.00;0.90;;;11.90;1.00;;;;;;5026439;28;20455;-79
2021/05/27 05:30:45;;;;;;;1.30;1.20;;;11.90;1.00;;;;;;5033192;28;20469;-82
2021/05/27 05:33:13;;;;;;;1.03;1.03;;;11.90;1.00;;;;;;5032802;28;20499;-78
2021/05/27 05:35:40;;;;;;;1.83;1.23;;;11.90;1.00;;;;;;5032080;28;21098;-79
2021/05/27 05:38:09;;;;;;;1.20;1.10;;;12.00;1.00;;;;;;5027206;28;20462;-79
2021/05/27 05:40:37;;;;;;;2.33;1.17;;;12.10;99.90;;;;;;5027887;28;21345;-78
2021/05/27 05:43:05;;;;;;;1.50;1.00;;;12.00;99.90;;;;;;5033052;28;20882;-78
2021/05/27 05:45:32;;;;;;;1.20;1.10;;;12.00;99.90;;;;;;5032002;28;20471;-79
2021/05/27 05:48:01;;;;;;;1.27;0.90;;;12.00;99.90;;;;;;5032218;28;20461;-80
2021/05/27 05:50:48;;;;;;;1.33;1.23;;;12.10;99.90;;;;;;5027797;28;20455;-80
2021/05/27 05:53:19;;;;;;;1.67;1.10;;;12.20;99.90;;;;;;5031833;28;20466;-80
2021/05/27 05:55:48;;;;;;;1.30;1.20;;;12.30;93.60;;;;;;5033782;28;20475;-82
2021/05/27 05:58:16;;;;;;;3.33;1.43;;;12.40;1.00;;;;;;5032026;28;20462;-81
2021/05/27 06:00:44;;;;;;;1.10;1.00;;;12.40;1.00;;;;;;5013493;28;20466;-80
2021/05/27 06:03:12;;;;;;;1.20;1.10;;;12.40;1.00;;;;;;5041443;28;20606;-81
2021/05/27 06:05:40;;;;;;;1.50;1.40;;;12.50;1.00;;;;;;5025283;28;20793;-79
2021/05/27 06:08:08;;;;;;;1.23;0.90;;;12.60;1.00;;;;;;5024036;28;20454;-78
2021/05/27 06:10:36;;;;;;;3.47;1.00;;;12.60;1.00;;;;;;5028881;28;20482;-78
2021/05/27 06:13:04;;;;;;;1.33;1.00;;;12.60;1.00;;;;;;5053756;28;20523;-78
2021/05/27 06:15:32;;;;;;;1.10;1.00;;;12.50;1.00;;;;;;5023713;28;20527;-80
2021/05/27 06:18:01;;;;;;;3.40;0.97;;;12.50;1.00;;;;;;5026864;28;20459;-79
2021/05/27 06:20:30;;;;;;;1.83;0.90;;;12.60;1.00;;;;;;5015876;28;20454;-79
2021/05/27 06:22:57;;;;;;;0.90;0.90;;;12.70;1.00;;;;;;5025741;28;21220;-83
2021/05/27 06:25:26;;;;;;;3.73;1.13;;;12.90;1.00;;;;;;5030093;28;20460;-82
2021/05/27 06:27:55;;;;;;;1.43;0.97;;;12.90;99.90;;;;;;5027415;28;20464;-79
2021/05/27 06:30:25;;;;;;;1.10;1.00;;;12.80;99.90;;;;;;5028491;28;20466;-82
2021/05/27 06:32:52;;;;;;;2.93;1.10;;;12.70;99.90;;;;;;5029743;28;20856;-80
2021/05/27 06:35:20;;;;;;;3.40;1.00;;;12.80;99.90;;;;;;5028235;28;20971;-78
2021/05/27 06:37:48;;;;;;;0.93;0.90;;;12.70;99.90;;;;;;5026145;28;20891;-82
2021/05/27 06:40:19;;;;;;;1.57;1.20;;;12.80;99.90;;;;;;5026486;28;20991;-80
2021/05/27 06:42:47;;;;;;;2.40;0.83;;;12.90;99.90;;;;;;5022893;28;20978;-79
2021/05/27 06:45:17;;;;;;;1.27;1.17;;;13.00;99.90;;;;;;5026550;28;20453;-78
2021/05/27 06:47:46;;;;;;;2.80;0.80;;;13.00;99.90;;;;;;5024399;28;20482;-79
2021/05/27 06:50:16;;;;;;;2.10;1.00;;;13.10;99.90;;;;;;5059549;28;20486;-78
2021/05/27 06:52:44;;;;;;;1.23;1.07;;;13.30;99.90;;;;;;5028446;28;20559;-79
2021/05/27 06:55:12;;;;;;;1.30;0.90;;;13.40;99.90;;;;;;5028073;28;20455;-79
2021/05/27 06:57:39;;;;;;;0.97;0.77;;;13.50;99.90;;;;;;5029476;28;20443;-79
2021/05/27 07:00:09;;;;;;;0.80;0.70;;;13.80;99.90;;;;;;5026140;28;20456;-81
2021/05/27 07:02:40;;;;;;;7.53;1.10;;;14.10;99.90;;;;;;5027895;28;20544;-78
2021/05/27 07:05:09;;;;;;;2.30;0.90;;;14.40;99.90;;;;;;5032879;28;20447;-80
2021/05/27 07:07:37;;;;;;;1.40;1.00;;;14.40;99.90;;;;;;5029609;28;20468;-81
2021/05/27 07:10:07;;;;;;;1.50;0.83;;;14.40;99.90;;;;;;5024846;28;20965;-78
2021/05/27 07:12:35;;;;;;;1.73;0.90;;;14.40;99.90;;;;;;5030145;28;20482;-78
2021/05/27 07:15:03;;;;;;;2.20;0.77;;;14.30;99.90;;;;;;5027232;28;20484;-79
2021/05/27 07:17:31;;;;;;;1.17;0.90;;;14.30;99.90;;;;;;5027988;28;21014;-79
2021/05/27 07:20:00;;;;;;;1.37;1.00;;;14.20;99.90;;;;;;5026262;28;20447;-77
2021/05/27 07:22:27;;;;;;;1.20;1.00;;;14.20;99.90;;;;;;5022013;28;20988;-82
2021/05/27 07:24:55;;;;;;;1.07;0.90;;;14.30;99.90;;;;;;5024086;28;20461;-78
2021/05/27 07:27:23;;;;;;;1.00;0.90;;;14.20;99.90;;;;;;5029612;28;21215;-78
2021/05/27 07:29:50;;;;;;;2.30;0.93;;;14.20;99.90;;;;;;5026365;28;20547;-81
2021/05/27 07:32:18;;;;;;;1.47;0.90;;;14.00;99.90;;;;;;5027911;28;20511;-78
2021/05/27 07:34:46;;;;;;;0.90;0.90;;;13.90;99.90;;;;;;5025744;28;20553;-80
2021/05/27 07:37:15;;;;;;;4.80;0.90;;;13.90;99.90;;;;;;5023912;28;20448;-78
2021/05/27 07:39:42;;;;;;;1.47;0.80;;;14.00;99.90;;;;;;5023059;28;20450;-78
2021/05/27 07:42:10;;;;;;;0.90;0.90;;;14.00;99.90;;;;;;5026044;28;20463;-81
2021/05/27 07:44:38;;;;;;;0.80;0.80;;;13.90;99.90;;;;;;5027344;28;20839;-79
2021/05/27 07:47:06;;;;;;;0.80;0.80;;;14.00;99.90;;;;;;5024899;28;20520;-80
2021/05/27 07:49:34;;;;;;;1.07;0.80;;;14.00;99.90;;;;;;5021529;28;20456;-81
2021/05/27 07:52:02;;;;;;;2.17;0.80;;;14.20;99.90;;;;;;5029268;28;21044;-78
2021/05/27 07:54:30;;;;;;;0.97;0.87;;;14.30;99.90;;;;;;5025677;28;20532;-79
2021/05/27 07:56:59;;;;;;;1.00;1.00;;;14.30;99.90;;;;;;5026827;28;20996;-79
2021/05/27 07:59:26;;;;;;;1.07;0.80;;;14.40;99.90;;;;;;5026342;28;20474;-78
2021/05/27 08:01:54;;;;;;;1.33;0.87;;;14.40;99.90;;;;;;5035405;28;20483;-81
2021/05/27 08:04:21;;;;;;;0.80;0.80;;;14.40;99.90;;;;;;5033841;28;20477;-78
2021/05/27 08:06:49;;;;;;;3.43;0.80;;;14.50;99.90;;;;;;5033625;28;20980;-78
2021/05/27 08:09:17;;;;;;;0.80;0.80;;;14.50;99.90;;;;;;5025281;28;21049;-79
2021/05/27 08:11:45;;;;;;;1.10;0.80;;;14.60;99.90;;;;;;5028028;28;20514;-77
2021/05/27 08:14:13;;;;;;;0.80;0.80;;;14.70;99.90;;;;;;5026135;28;20475;-78
2021/05/27 08:16:41;;;;;;;1.00;0.90;;;14.70;99.90;;;;;;5027581;28;20471;-79
2021/05/27 08:19:12;;;;;;;1.10;1.00;;;14.60;99.90;;;;;;5025208;28;20545;-81
2021/05/27 08:21:40;;;;;;;1.80;0.90;;;14.30;99.90;;;;;;5024782;28;20454;-81
2021/05/27 08:24:08;;;;;;;2.97;1.10;;;14.40;99.90;;;;;;5026514;28;20516;-81
2021/05/27 08:26:36;;;;;;;1.03;1.00;;;14.40;99.90;;;;;;5031050;28;20462;-79
2021/05/27 08:29:04;;;;;;;1.60;0.93;;;14.60;99.90;;;;;;5028690;28;20474;-81
2021/05/27 08:31:32;;;;;;;0.73;0.73;;;14.70;99.90;;;;;;5060057;28;20846;-80
2021/05/27 08:34:00;;;;;;;1.00;0.90;;;14.70;99.90;;;;;;5027875;28;20470;-79
2021/05/27 08:36:27;;;;;;;1.90;0.80;;;14.90;99.90;;;;;;5028745;28;20897;-78
2021/05/27 08:38:55;;;;;;;3.40;0.90;;;14.90;99.90;;;;;;5025489;28;20955;-79
2021/05/27 08:41:23;;;;;;;1.10;1.00;;;14.90;99.90;;;;;;5028069;28;20466;-79
2021/05/27 08:43:51;;;;;;;1.50;1.10;;;15.00;99.90;;;;;;5029692;28;20568;-79
2021/05/27 08:46:22;;;;;;;1.17;0.93;;;15.00;99.90;;;;;;5029219;28;20997;-80
2021/05/27 08:48:50;;;;;;;1.37;1.00;;;15.00;99.90;;;;;;5027568;28;20449;-79
2021/05/27 08:51:18;;;;;;;0.90;0.90;;;15.10;99.90;;;;;;5028801;28;21102;-76
2021/05/27 08:53:46;;;;;;;1.87;0.90;;;15.20;99.90;;;;;;5025543;28;20479;-80
2021/05/27 08:56:14;;;;;;;1.57;1.17;;;15.30;99.90;;;;;;5029650;28;20440;-79
2021/05/27 08:58:42;;;;;;;0.90;0.90;;;15.20;99.90;;;;;;5029684;28;20966;-80
2021/05/27 09:01:10;;;;;;;1.13;1.00;;;15.40;99.90;;;;;;5027170;28;20454;-78
2021/05/27 09:03:40;;;;;;;0.97;0.83;;;15.30;99.90;;;;;;5061201;28;20483;-80
2021/05/27 09:06:10;;;;;;;1.47;1.00;;;15.40;99.90;;;;;;5023388;28;20491;-79
2021/05/27 09:08:39;;;;;;;1.90;0.90;;;15.40;99.90;;;;;;5029629;28;20846;-81
2021/05/27 09:11:08;;;;;;;1.03;0.90;;;15.30;99.90;;;;;;5028405;28;20688;-78
2021/05/27 09:13:38;;;;;;;0.87;0.87;;;15.10;99.90;;;;;;5031561;28;20997;-81
2021/05/27 09:16:08;;;;;;;0.80;0.80;;;15.00;99.90;;;;;;5028649;28;20486;-80
2021/05/27 09:18:37;;;;;;;2.13;0.90;;;14.90;99.90;;;;;;5031346;28;20447;-78
2021/05/27 09:21:07;;;;;;;1.10;0.73;;;15.10;99.90;;;;;;5027704;28;20459;-79
2021/05/27 09:23:36;;;;;;;1.20;0.83;;;15.10;99.90;;;;;;5028852;28;20472;-79
2021/05/27 09:26:11;;;;;;;0.73;0.73;;;15.20;99.90;;;;;;5031189;28;20460;-79
2021/05/27 09:28:38;;;;;;;0.93;0.70;;;15.30;99.90;;;;;;5027248;28;20975;-83
2021/05/27 09:31:08;;;;;;;2.97;0.83;;;15.30;99.90;;;;;;5032966;28;21123;-79
2021/05/27 09:33:37;;;;;;;1.70;0.90;;;15.40;99.90;;;;;;5028677;28;20946;-78
2021/05/27 09:36:07;;;;;;;1.47;0.90;;;15.40;99.90;;;;;;5029152;28;20532;-79
2021/05/27 09:38:36;;;;;;;1.07;0.90;;;15.40;99.90;;;;;;5027275;28;20474;-78
2021/05/27 09:41:18;;;;;;;1.20;0.70;;;15.40;99.90;;;;;;5030923;28;20464;-77
2021/05/27 09:43:48;;;;;;;0.90;0.80;;;15.40;99.90;;;;;;5028378;28;20525;-79
2021/05/27 09:46:17;;;;;;;2.00;0.90;;;15.50;99.90;;;;;;5028856;28;20478;-78
2021/05/27 09:48:45;;;;;;;0.87;0.80;;;15.60;99.90;;;;;;5023467;28;20476;-79
2021/05/27 09:51:26;;;;;;;1.27;0.83;;;15.70;99.90;;;;;;5030222;28;20460;-77
2021/05/27 09:53:55;;;;;;;1.53;0.90;;;15.80;99.90;;;;;;5040350;28;21079;-79
2021/05/27 09:56:33;;;;;;;0.73;0.73;;;15.80;99.90;;;;;;5022261;28;20448;-78
2021/05/27 09:59:07;;;;;;;1.13;0.73;;;15.80;99.90;;;;;;5028233;28;20552;-80
2021/05/27 10:01:34;;;;;;;1.27;0.90;;;15.80;99.90;;;;;;5024739;28;20467;-81
2021/05/27 10:04:11;;;;;;;1.13;0.90;;;15.70;99.90;;;;;;5029060;28;20474;-78
2021/05/27 10:06:40;;;;;;;0.80;0.70;;;15.80;99.90;;;;;;5022317;28;20504;-77
2021/05/27 10:09:09;;;;;;;0.87;0.73;;;15.70;99.90;;;;;;5027010;28;20888;-78
2021/05/27 10:11:37;;;;;;;1.23;0.80;;;15.70;99.90;;;;;;5045268;28;20517;-79
2021/05/27 10:14:07;;;;;;;1.00;0.80;;;15.70;99.90;;;;;;5025441;28;20496;-79
2021/05/27 10:16:37;;;;;;;0.70;0.70;;;15.70;99.90;;;;;;5020709;28;20471;-79
2021/05/27 10:19:06;;;;;;;1.60;0.80;;;15.80;99.90;;;;;;5028463;28;20457;-81
2021/05/27 10:21:34;;;;;;;1.33;0.70;;;15.70;99.90;;;;;;5028772;28;20446;-82
2021/05/27 10:24:03;;;;;;;0.90;0.90;;;15.70;99.90;;;;;;5029023;28;20530;-79
2021/05/27 10:26:31;;;;;;;0.70;0.70;;;15.80;99.90;;;;;;5018456;28;20562;-78
2021/05/27 10:29:20;;;;;;;0.80;0.80;;;15.90;99.90;;;;;;5025144;28;20885;-79
2021/05/27 10:31:49;;;;;;;0.60;0.60;;;15.90;99.90;;;;;;5030059;28;20914;-79
2021/05/27 10:34:41;;;;;;;2.20;0.70;;;15.90;99.90;;;;;;5028072;28;21117;-78
2021/05/27 10:37:09;;;;;;;1.00;1.00;;;15.90;99.90;;;;;;5023305;28;20531;-79
2021/05/27 10:39:40;;;;;;;1.20;0.80;;;15.90;99.90;;;;;;5028888;28;20507;-79
2021/05/27 10:42:08;;;;;;;1.13;0.70;;;15.90;99.90;;;;;;5026231;28;20471;-80
2021/05/27 10:45:11;;;;;;;0.70;0.70;;;16.00;99.90;;;;;;5027772;28;20475;-78
2021/05/27 10:47:38;;;;;;;0.70;0.70;;;16.00;99.90;;;;;;5021206;28;20454;-78
2021/05/27 10:50:08;;;;;;;0.80;0.80;;;16.00;99.90;;;;;;5019296;28;20499;-80
2021/05/27 10:52:44;;;;;;;1.17;0.80;;;16.00;99.90;;;;;;5026627;28;20814;-80
2021/05/27 10:55:53;;;;;;;1.00;1.00;;;16.00;99.90;;;;;;5028957;28;20462;-80
2021/05/27 10:59:10;;;;;;;1.10;0.80;;;16.00;99.90;;;;;;5058946;28;20480;-79
2021/05/27 11:02:05;;;;;;;3.67;0.70;;;16.00;99.90;;;;;;5033721;28;20451;-82
2021/05/27 11:04:40;;;;;;;0.73;0.60;;;16.00;99.90;;;;;;5027812;28;20526;-79
2021/05/27 11:07:22;;;;;;;1.20;0.80;;;16.10;99.90;;;;;;5029680;28;20513;-77
2021/05/27 11:09:52;;;;;;;1.03;0.80;;;16.10;99.90;;;;;;5027300;28;20459;-79
2021/05/27 11:12:28;;;;;;;0.70;0.70;;;16.10;99.90;;;;;;5025846;28;20493;-78
2021/05/27 11:15:10;;;;;;;2.50;0.70;;;16.20;99.90;;;;;;5029430;28;20678;-82
2021/05/27 11:17:39;;;;;;;0.83;0.70;;;16.20;99.90;;;;;;5028280;28;20459;-80
2021/05/27 11:20:10;;;;;;;2.50;0.80;;;16.20;99.90;;;;;;5026542;28;20447;-79
2021/05/27 11:22:47;;;;;;;3.60;0.73;;;16.20;99.90;;;;;;5041479;28;20986;-78
2021/05/27 11:25:34;;;;;;;0.87;0.80;;;16.40;99.90;;;;;;5029565;28;20464;-79
2021/05/27 11:28:38;;;;;;;1.60;0.80;;;16.30;99.90;;;;;;5025857;28;20448;-81
2021/05/27 11:31:06;;;;;;;4.40;0.80;;;16.30;99.90;;;;;;5029275;28;20519;-79
2021/05/27 11:33:39;;;;;;;0.87;0.70;;;16.30;99.90;;;;;;5029412;28;20476;-80
2021/05/27 11:36:24;;;;;;;1.27;0.90;;;16.40;99.90;;;;;;5028886;28;20464;-82
2021/05/27 11:38:52;;;;;;;0.97;0.87;;;16.50;99.90;;;;;;5027088;28;20497;-80
2021/05/27 11:41:20;;;;;;;1.53;0.80;;;16.50;99.90;;;;;;5024029;28;20476;-80
2021/05/27 11:43:50;;;;;;;2.40;0.80;;;16.50;99.90;;;;;;5026750;28;20526;-79
2021/05/27 11:46:20;;;;;;;0.70;0.67;;;16.40;99.90;;;;;;4984268;28;1130266;-79
2021/05/27 11:49:01;;;;;;;0.60;0.60;;;16.10;99.90;;;;;;5027125;28;20464;-79
2021/05/27 11:51:34;;;;;;;0.63;0.63;;;16.30;99.90;;;;;;5025744;28;20559;-78
2021/05/27 11:54:05;;;;;;;0.70;0.70;;;16.30;99.90;;;;;;5028386;28;20512;-79
2021/05/27 11:56:43;;;;;;;0.77;0.77;;;16.40;99.90;;;;;;5026241;28;20522;-82
2021/05/27 11:59:19;;;;;;;3.00;0.70;;;16.40;99.90;;;;;;5055152;28;20464;-79
2021/05/27 12:01:51;;;;;;;0.80;0.80;;;16.50;99.90;;;;;;5024816;28;21179;-78
2021/05/27 12:04:24;;;;;;;1.17;1.07;;;16.60;99.90;;;;;;5023174;28;20489;-82
2021/05/27 12:07:00;;;;;;;2.23;0.83;;;16.50;99.90;;;;;;5027830;28;20448;-80
2021/05/27 12:09:39;;;;;;;1.03;0.73;;;16.60;99.90;;;;;;5024896;28;20450;-77
2021/05/27 12:12:26;;;;;;;0.80;0.73;;;16.60;99.90;;;;;;5052083;28;20817;-78
2021/05/27 12:14:56;;;;;;;1.40;0.77;;;16.50;99.90;;;;;;5026639;28;21007;-83
2021/05/27 12:17:26;;;;;;;0.60;0.60;;;16.60;99.90;;;;;;5059818;28;20447;-79
2021/05/27 12:19:57;;;;;;;0.80;0.80;;;16.60;99.90;;;;;;5027954;28;20468;-82
2021/05/27 12:22:43;;;;;;;1.30;0.70;;;16.60;99.90;;;;;;5024348;28;20457;-85
2021/05/27 12:25:12;;;;;;;1.43;1.33;;;16.70;99.90;;;;;;5028918;28;20457;-82
2021/05/27 12:27:45;;;;;;;1.80;0.80;;;16.70;99.90;;;;;;5028401;28;20509;-83
2021/05/27 12:30:17;;;;;;;0.63;0.63;;;16.80;99.90;;;;;;5027111;28;20475;-82
2021/05/27 12:32:47;;;;;;;0.80;0.80;;;16.80;99.90;;;;;;5027817;28;20465;-81
2021/05/27 12:35:17;;;;;;;0.80;0.70;;;16.70;99.90;;;;;;5028057;28;20472;-80
2021/05/27 12:37:49;;;;;;;1.33;0.60;;;16.70;99.90;;;;;;5027984;28;20450;-79
2021/05/27 12:40:26;;;;;;;0.90;0.70;;;16.70;99.90;;;;;;5028362;28;20454;-80
2021/05/27 12:42:56;;;;;;;0.53;0.53;;;16.80;99.90;;;;;;5027399;28;20859;-83
2021/05/27 12:45:33;;;;;;;1.53;0.70;;;16.80;99.90;;;;;;5012641;28;20531;-80
2021/05/27 12:48:14;;;;;;;0.70;0.70;;;16.80;99.90;;;;;;5030620;28;20462;-81
2021/05/27 12:51:03;;;;;;;0.83;0.70;;;16.90;99.90;;;;;;5030899;28;20455;-81
2021/05/27 12:53:32;;;;;;;0.77;0.70;;;17.00;99.90;;;;;;5024109;28;20964;-81
2021/05/27 12:56:16;;;;;;;0.60;0.60;;;17.00;99.90;;;;;;5030645;28;20448;-77
2021/05/27 12:58:45;;;;;;;0.87;0.87;;;17.00;99.90;;;;;;5030087;28;20513;-83
2021/05/27 13:01:14;;;;;;;0.87;0.70;;;17.10;99.90;;;;;;5045922;28;20506;-81
2021/05/27 13:03:48;;;;;;;0.80;0.77;;;17.00;99.90;;;;;;5043222;28;20526;-81
2021/05/27 13:06:21;;;;;;;0.80;0.80;;;17.00;99.90;;;;;;5029724;28;20450;-81
2021/05/27 13:08:57;;;;;;;2.50;0.80;;;16.90;99.90;;;;;;5029698;28;20833;-82
2021/05/27 13:11:30;;;;;;;3.70;0.83;;;16.80;99.90;;;;;;5024019;28;20457;-78
2021/05/27 13:14:17;;;;;;;0.90;0.70;;;16.80;99.90;;;;;;5029832;28;20537;-80